Time;durP1;ratioP1;P1;durP2;ratioP2;P2;SDS_P1;SDS_P2;PMS_P1;PMS_P2;Temp;Humidity;BMP_temperature;BMP_pressure;BME280_temperature;BME280_humidity;BME280_pressure;Samples;Min_cycle;Max_cycle;Signal;HPM_P1;HPM_P2
2021/06/05 00:01:44;;;;;;;36.43;34.03;;;;;;;;;;5035334;28;20447;-83
2021/06/05 00:04:12;;;;;;;38.53;35.93;;;;;;;;;;5035338;28;20435;-82
2021/06/05 00:06:40;;;;;;;39.30;36.63;;;;;;;;;;5035462;28;20438;-83
2021/06/05 00:09:08;;;;;;;40.30;37.17;;;;;;;;;;5035109;28;20493;-83
2021/06/05 00:11:35;;;;;;;38.17;35.63;;;;;;;;;;5035123;28;20438;-83
2021/06/05 00:14:03;;;;;;;37.87;34.83;;;;;;;;;;5035232;28;20401;-83
2021/06/05 00:16:32;;;;;;;36.07;33.60;;;;;;;;;;5035133;28;20490;-84
2021/06/05 00:18:59;;;;;;;35.03;32.70;;;;;;;;;;5035316;28;20416;-84
2021/06/05 00:21:27;;;;;;;37.50;34.70;;;;;;;;;;5035095;28;20447;-84
2021/06/05 00:23:56;;;;;;;36.70;34.27;;;;;;;;;;5035122;28;20458;-84
2021/06/05 00:26:23;;;;;;;34.63;32.23;;;;;;;;;;5035498;28;20499;-84
2021/06/05 00:28:50;;;;;;;37.37;34.17;;;;;;;;;;5034832;28;20435;-85
2021/06/05 00:31:17;;;;;;;35.73;33.43;;;;;;;;;;5034746;28;20927;-85
2021/06/05 00:33:44;;;;;;;37.27;34.67;;;;;;;;;;5034739;28;20431;-84
2021/06/05 00:36:12;;;;;;;39.00;36.00;;;;;;;;;;5035021;28;20992;-84
2021/06/05 00:38:39;;;;;;;39.40;36.70;;;;;;;;;;5034593;28;20522;-84
2021/06/05 00:41:09;;;;;;;40.00;37.10;;;;;;;;;;5034459;28;20932;-82
2021/06/05 00:43:38;;;;;;;37.10;34.70;;;;;;;;;;5035430;28;20439;-82
2021/06/05 00:46:05;;;;;;;38.20;35.40;;;;;;;;;;5034908;28;20443;-83
2021/06/05 00:48:32;;;;;;;38.20;35.37;;;;;;;;;;5034681;28;20817;-82
2021/06/05 00:50:59;;;;;;;39.23;36.40;;;;;;;;;;5034848;28;20422;-82
2021/06/05 00:53:27;;;;;;;37.07;34.53;;;;;;;;;;5034656;28;20412;-82
2021/06/05 00:55:55;;;;;;;38.57;35.77;;;;;;;;;;5034311;28;20457;-82
2021/06/05 00:58:24;;;;;;;38.97;36.27;;;;;;;;;;5034198;28;20424;-83
2021/06/05 01:00:52;;;;;;;37.60;34.90;;;;;;;;;;5034555;28;20442;-82
2021/06/05 01:03:20;;;;;;;37.10;34.70;;;;;;;;;;5034360;28;20428;-83
2021/06/05 01:05:48;;;;;;;37.27;34.67;;;;;;;;;;5034397;28;20768;-83
2021/06/05 01:08:21;;;;;;;36.10;33.60;;;;;;;;;;5033927;28;20450;-83
2021/06/05 01:10:50;;;;;;;38.20;35.60;;;;;;;;;;5033973;28;20497;-83
2021/06/05 01:13:19;;;;;;;35.60;33.20;;;;;;;;;;5034300;28;20493;-83
2021/06/05 01:15:51;;;;;;;38.17;35.27;;;;;;;;;;5034494;28;20485;-83
2021/06/05 01:18:24;;;;;;;38.87;36.20;;;;;;;;;;5034217;28;20557;-82
2021/06/05 01:20:57;;;;;;;37.90;35.30;;;;;;;;;;5034121;28;20450;-82
2021/06/05 01:23:27;;;;;;;37.23;34.47;;;;;;;;;;5034151;28;20447;-82
2021/06/05 01:26:00;;;;;;;38.30;35.50;;;;;;;;;;5034061;28;20450;-82
2021/06/05 01:28:30;;;;;;;36.67;34.17;;;;;;;;;;5033151;28;20442;-82
2021/06/05 01:30:59;;;;;;;36.23;33.73;;;;;;;;;;5033817;28;20987;-82
2021/06/05 01:33:28;;;;;;;37.37;34.57;;;;;;;;;;5033577;28;20970;-84
2021/06/05 01:35:55;;;;;;;36.20;33.73;;;;;;;;;;5034074;28;20490;-83
2021/06/05 01:38:25;;;;;;;37.87;35.37;;;;;;;;;;5034024;28;20455;-82
2021/06/05 01:40:53;;;;;;;37.63;35.03;;;;;;;;;;5034105;28;20869;-82
2021/06/05 01:43:23;;;;;;;36.10;33.67;;;;;;;;;;5034069;28;20416;-84
2021/06/05 01:45:51;;;;;;;37.57;35.07;;;;;;;;;;5034025;28;20448;-84
2021/06/05 01:48:18;;;;;;;39.37;36.57;;;;;;;;;;5033824;28;20473;-83
2021/06/05 01:50:46;;;;;;;38.80;36.10;;;;;;;;;;5033623;28;20445;-82
2021/06/05 01:53:16;;;;;;;40.10;37.13;;;;;;;;;;5033959;28;20820;-84
2021/06/05 01:55:45;;;;;;;40.23;37.20;;;;;;;;;;5033797;28;20873;-84
2021/06/05 01:58:14;;;;;;;39.47;36.77;;;;;;;;;;5033671;28;20464;-82
2021/06/05 02:00:45;;;;;;;40.17;37.17;;;;;;;;;;5033798;28;20458;-83
2021/06/05 02:03:12;;;;;;;42.40;39.30;;;;;;;;;;5033839;28;20803;-82
2021/06/05 02:05:39;;;;;;;41.30;38.30;;;;;;;;;;5033919;28;20416;-83
2021/06/05 02:08:06;;;;;;;39.53;36.83;;;;;;;;;;5034036;28;20835;-82
2021/06/05 02:10:34;;;;;;;42.93;39.83;;;;;;;;;;5033589;28;20460;-83
2021/06/05 02:13:01;;;;;;;40.80;37.50;;;;;;;;;;5033894;28;20445;-83
2021/06/05 02:15:31;;;;;;;39.30;36.50;;;;;;;;;;5033552;28;20453;-83
2021/06/05 02:18:00;;;;;;;38.60;35.90;;;;;;;;;;5033348;28;20447;-83
2021/06/05 02:20:29;;;;;;;41.53;38.50;;;;;;;;;;5033754;28;20420;-83
2021/06/05 02:22:58;;;;;;;40.07;37.23;;;;;;;;;;5033813;28;20473;-84
2021/06/05 02:25:25;;;;;;;39.93;37.13;;;;;;;;;;5035614;28;20445;-83
2021/06/05 02:27:53;;;;;;;41.43;38.53;;;;;;;;;;5036934;28;20445;-83
2021/06/05 02:30:21;;;;;;;43.53;40.13;;;;;;;;;;5037103;28;20442;-83
2021/06/05 02:32:49;;;;;;;42.70;39.50;;;;;;;;;;5037113;28;20454;-83
2021/06/05 02:35:23;;;;;;;44.27;41.17;;;;;;;;;;5036922;28;20410;-83
2021/06/05 02:37:50;;;;;;;40.10;37.30;;;;;;;;;;5037040;28;20431;-83
2021/06/05 02:40:18;;;;;;;41.70;38.70;;;;;;;;;;5036822;28;20420;-83
2021/06/05 02:42:45;;;;;;;42.90;39.80;;;;;;;;;;5037067;28;20852;-83
2021/06/05 02:45:16;;;;;;;40.93;38.07;;;;;;;;;;5036987;28;20484;-83
2021/06/05 02:47:52;;;;;;;41.60;38.53;;;;;;;;;;5036764;28;20421;-83
2021/06/05 02:50:20;;;;;;;43.93;40.47;;;;;;;;;;5035828;28;20828;-83
2021/06/05 02:52:47;;;;;;;42.30;39.20;;;;;;;;;;5036933;28;20796;-83
2021/06/05 02:55:17;;;;;;;45.13;41.83;;;;;;;;;;5036901;28;20422;-83
2021/06/05 02:57:45;;;;;;;45.13;41.53;;;;;;;;;;5036665;28;20470;-83
2021/06/05 03:00:13;;;;;;;43.67;40.60;;;;;;;;;;5036895;28;20421;-84
2021/06/05 03:02:40;;;;;;;43.43;40.33;;;;;;;;;;5036369;28;20450;-83
2021/06/05 03:05:08;;;;;;;42.43;39.40;;;;;;;;;;5036972;28;20417;-83
2021/06/05 03:07:36;;;;;;;44.77;41.30;;;;;;;;;;5036430;28;20416;-83
2021/06/05 03:10:03;;;;;;;44.90;41.50;;;;;;;;;;5036452;28;20472;-83
2021/06/05 03:12:30;;;;;;;46.70;43.00;;;;;;;;;;5036716;28;20414;-83
2021/06/05 03:14:57;;;;;;;43.97;40.67;;;;;;;;;;5036251;28;20453;-83
2021/06/05 03:17:24;;;;;;;45.30;41.37;;;;;;;;;;5036518;28;20472;-83
2021/06/05 03:19:50;;;;;;;46.07;42.53;;;;;;;;;;5036039;28;20450;-84
2021/06/05 03:22:17;;;;;;;46.00;42.37;;;;;;;;;;5037207;28;20795;-84
2021/06/05 03:24:46;;;;;;;45.93;42.63;;;;;;;;;;5035140;28;20770;-83
2021/06/05 03:27:13;;;;;;;45.37;41.97;;;;;;;;;;5035946;28;20446;-83
2021/06/05 03:29:40;;;;;;;43.03;39.93;;;;;;;;;;5035979;28;20445;-83
2021/06/05 03:32:08;;;;;;;46.57;42.87;;;;;;;;;;5035725;28;20411;-83
2021/06/05 03:34:35;;;;;;;43.40;40.00;;;;;;;;;;5036127;28;20471;-83
2021/06/05 03:37:01;;;;;;;42.47;39.37;;;;;;;;;;5035392;28;20478;-83
2021/06/05 03:39:28;;;;;;;46.00;42.50;;;;;;;;;;5035954;28;20897;-83
2021/06/05 03:41:57;;;;;;;45.63;42.33;;;;;;;;;;5035629;28;20428;-83
2021/06/05 03:44:23;;;;;;;43.10;39.93;;;;;;;;;;5035478;28;20478;-84
2021/06/05 03:46:50;;;;;;;45.13;41.50;;;;;;;;;;5035579;28;20469;-83
2021/06/05 03:49:17;;;;;;;42.67;39.40;;;;;;;;;;5035454;28;20446;-84
2021/06/05 03:51:44;;;;;;;41.67;38.67;;;;;;;;;;5035861;28;20461;-83
2021/06/05 03:54:11;;;;;;;43.77;40.73;;;;;;;;;;5034532;28;20453;-82
2021/06/05 03:56:38;;;;;;;42.03;38.83;;;;;;;;;;5035636;28;20485;-83
2021/06/05 03:59:08;;;;;;;43.10;40.00;;;;;;;;;;5035324;28;20425;-82
2021/06/05 04:01:35;;;;;;;44.47;41.17;;;;;;;;;;5035646;28;20446;-84
2021/06/05 04:04:02;;;;;;;44.93;41.50;;;;;;;;;;5034363;28;20787;-83
2021/06/05 04:06:29;;;;;;;46.23;42.63;;;;;;;;;;5035089;28;20814;-83
2021/06/05 04:08:58;;;;;;;45.13;41.40;;;;;;;;;;5034878;28;20921;-82
2021/06/05 04:11:26;;;;;;;46.83;43.20;;;;;;;;;;5034992;28;20502;-82
2021/06/05 04:13:53;;;;;;;46.27;42.77;;;;;;;;;;5035028;28;20538;-83
2021/06/05 04:16:23;;;;;;;45.17;41.77;;;;;;;;;;5035037;28;20496;-83
2021/06/05 04:18:50;;;;;;;46.87;43.33;;;;;;;;;;5034941;28;20423;-83
2021/06/05 04:21:19;;;;;;;44.20;40.80;;;;;;;;;;5035164;28;20429;-83
2021/06/05 04:23:47;;;;;;;47.57;43.67;;;;;;;;;;5035075;28;20533;-83
2021/06/05 04:26:14;;;;;;;49.47;45.57;;;;;;;;;;5034529;28;20433;-83
2021/06/05 04:28:41;;;;;;;54.43;49.73;;;;;;;;;;5035019;28;20438;-83
2021/06/05 04:31:10;;;;;;;53.00;48.40;;;;;;;;;;5035059;28;20445;-83
2021/06/05 04:33:39;;;;;;;51.77;47.57;;;;;;;;;;5034525;28;20501;-83
2021/06/05 04:36:08;;;;;;;52.07;47.87;;;;;;;;;;5034767;28;20481;-83
2021/06/05 04:38:35;;;;;;;48.83;44.90;;;;;;;;;;5034527;28;20912;-83
2021/06/05 04:41:03;;;;;;;47.30;43.60;;;;;;;;;;5034556;28;20503;-83
2021/06/05 04:43:29;;;;;;;52.87;48.37;;;;;;;;;;5034383;28;20957;-83
2021/06/05 04:45:57;;;;;;;53.63;48.90;;;;;;;;;;5034735;28;20446;-83
2021/06/05 04:48:24;;;;;;;54.33;49.67;;;;;;;;;;5033586;28;20428;-83
2021/06/05 04:50:54;;;;;;;51.77;47.47;;;;;;;;;;5034612;28;20457;-83
2021/06/05 04:53:22;;;;;;;57.13;52.00;;;;;;;;;;5034467;28;20480;-83
2021/06/05 04:55:49;;;;;;;53.77;49.27;;;;;;;;;;5034525;28;20477;-83
2021/06/05 04:58:17;;;;;;;54.70;50.10;;;;;;;;;;5034510;28;20507;-83
2021/06/05 05:00:45;;;;;;;52.83;48.53;;;;;;;;;;5034384;28;20412;-83
2021/06/05 05:03:14;;;;;;;52.13;48.03;;;;;;;;;;5034296;28;20450;-83
2021/06/05 05:05:41;;;;;;;51.80;47.50;;;;;;;;;;5034484;28;20425;-83
2021/06/05 05:08:10;;;;;;;51.53;47.43;;;;;;;;;;5034411;28;20438;-83
2021/06/05 05:10:38;;;;;;;53.10;48.43;;;;;;;;;;5034031;28;20548;-83
2021/06/05 05:13:06;;;;;;;55.97;51.30;;;;;;;;;;5034320;28;20476;-82
2021/06/05 05:15:33;;;;;;;54.07;49.80;;;;;;;;;;5033859;28;20445;-82
2021/06/05 05:18:00;;;;;;;54.93;50.07;;;;;;;;;;5034238;28;20430;-83
2021/06/05 05:20:28;;;;;;;56.97;52.10;;;;;;;;;;5033873;28;20417;-83
2021/06/05 05:22:56;;;;;;;53.90;49.10;;;;;;;;;;5034327;28;20438;-83
2021/06/05 05:25:24;;;;;;;54.90;50.40;;;;;;;;;;5033964;28;20417;-82
2021/06/05 05:27:51;;;;;;;53.80;49.40;;;;;;;;;;5033977;28;20504;-83
2021/06/05 05:30:21;;;;;;;55.07;50.57;;;;;;;;;;5032981;28;20516;-83
2021/06/05 05:32:48;;;;;;;54.17;49.30;;;;;;;;;;5033985;28;20447;-82
2021/06/05 05:35:15;;;;;;;54.87;50.17;;;;;;;;;;5033972;28;20858;-82
2021/06/05 05:37:42;;;;;;;56.87;51.87;;;;;;;;;;5033636;28;20998;-82
2021/06/05 05:40:10;;;;;;;54.13;49.53;;;;;;;;;;5033683;28;20450;-82
2021/06/05 05:42:38;;;;;;;52.83;48.13;;;;;;;;;;5033894;28;20454;-82
2021/06/05 05:45:06;;;;;;;54.43;49.80;;;;;;;;;;5033497;28;20477;-82
2021/06/05 05:47:33;;;;;;;53.07;48.57;;;;;;;;;;5034042;28;20756;-81
2021/06/05 05:50:00;;;;;;;56.10;51.07;;;;;;;;;;5033827;28;20780;-80
2021/06/05 05:52:27;;;;;;;56.20;51.00;;;;;;;;;;5033532;28;20493;-82
2021/06/05 05:54:54;;;;;;;57.27;52.10;;;;;;;;;;5033850;28;20438;-82
2021/06/05 05:57:20;;;;;;;57.67;52.70;;;;;;;;;;5033269;28;20465;-79
2021/06/05 05:59:49;;;;;;;55.93;51.03;;;;;;;;;;5035495;28;20420;-82
2021/06/05 06:02:16;;;;;;;56.00;51.30;;;;;;;;;;5037481;28;20416;-82
2021/06/05 06:04:42;;;;;;;55.97;50.70;;;;;;;;;;5037993;28;20454;-82
2021/06/05 06:07:09;;;;;;;58.40;53.43;;;;;;;;;;5037297;28;20448;-82
2021/06/05 06:09:36;;;;;;;59.50;54.30;;;;;;;;;;5037122;28;20878;-80
2021/06/05 06:12:03;;;;;;;55.87;50.70;;;;;;;;;;5037094;28;20496;-80
2021/06/05 06:14:30;;;;;;;57.53;52.50;;;;;;;;;;5037395;28;20421;-80
2021/06/05 06:16:59;;;;;;;60.07;54.87;;;;;;;;;;5036838;28;20455;-80
2021/06/05 06:19:25;;;;;;;57.10;52.10;;;;;;;;;;5036914;28;20421;-80
2021/06/05 06:21:53;;;;;;;58.07;53.27;;;;;;;;;;5037115;28;20418;-80
2021/06/05 06:24:20;;;;;;;55.80;51.10;;;;;;;;;;5037160;28;20421;-80
2021/06/05 06:26:47;;;;;;;56.60;51.67;;;;;;;;;;5036857;28;20515;-80
2021/06/05 06:29:16;;;;;;;56.57;51.80;;;;;;;;;;5037003;28;20441;-79
2021/06/05 06:31:43;;;;;;;57.87;52.77;;;;;;;;;;5035746;28;20432;-79
2021/06/05 06:34:11;;;;;;;58.07;52.40;;;;;;;;;;5036824;28;20450;-79
2021/06/05 06:36:42;;;;;;;57.07;52.30;;;;;;;;;;5036927;28;20532;-80
2021/06/05 06:39:09;;;;;;;55.10;50.50;;;;;;;;;;5036717;28;20517;-79
2021/06/05 06:41:36;;;;;;;57.40;52.80;;;;;;;;;;5036468;28;21001;-79
2021/06/05 06:44:05;;;;;;;54.87;49.97;;;;;;;;;;5036535;28;20437;-79
2021/06/05 06:46:33;;;;;;;53.07;48.63;;;;;;;;;;5036436;28;20417;-79
2021/06/05 06:49:00;;;;;;;54.40;49.90;;;;;;;;;;5036702;28;20500;-79
2021/06/05 06:51:29;;;;;;;53.83;49.23;;;;;;;;;;5036647;28;20439;-79
2021/06/05 06:53:56;;;;;;;53.93;49.20;;;;;;;;;;5036663;28;20906;-79
2021/06/05 06:56:24;;;;;;;54.93;50.40;;;;;;;;;;5036449;28;20474;-79
2021/06/05 06:58:51;;;;;;;54.33;49.60;;;;;;;;;;5036055;28;20915;-80
2021/06/05 07:01:18;;;;;;;56.97;51.77;;;;;;;;;;5036028;28;20454;-79
2021/06/05 07:03:45;;;;;;;57.57;52.30;;;;;;;;;;5035014;28;20450;-79
2021/06/05 07:06:12;;;;;;;56.27;51.57;;;;;;;;;;5036377;28;20424;-80
2021/06/05 07:08:42;;;;;;;53.90;49.33;;;;;;;;;;5035006;28;20445;-79
2021/06/05 07:11:16;;;;;;;53.97;49.27;;;;;;;;;;5035010;28;20425;-79
2021/06/05 07:13:44;;;;;;;56.17;51.37;;;;;;;;;;5035960;28;20469;-79
2021/06/05 07:16:11;;;;;;;56.37;51.27;;;;;;;;;;5034723;28;20539;-79
2021/06/05 07:18:39;;;;;;;57.33;52.07;;;;;;;;;;5035756;28;20803;-78
2021/06/05 07:21:07;;;;;;;58.77;53.40;;;;;;;;;;5035817;28;20455;-79
2021/06/05 07:23:34;;;;;;;52.83;48.00;;;;;;;;;;5035797;28;20928;-80
2021/06/05 07:26:05;;;;;;;55.63;50.80;;;;;;;;;;5035932;28;20429;-86
2021/06/05 07:28:33;;;;;;;54.40;49.70;;;;;;;;;;5035921;28;20803;-82
2021/06/05 07:31:00;;;;;;;55.00;50.10;;;;;;;;;;5035350;28;20884;-78
2021/06/05 07:33:27;;;;;;;55.40;50.60;;;;;;;;;;5035403;28;20418;-88
2021/06/05 07:35:55;;;;;;;53.70;49.20;;;;;;;;;;5036138;28;20417;-79
2021/06/05 07:38:23;;;;;;;55.70;50.70;;;;;;;;;;5035657;28;20418;-79
2021/06/05 07:40:50;;;;;;;52.63;48.10;;;;;;;;;;5035352;28;20451;-77
2021/06/05 07:43:19;;;;;;;49.83;45.53;;;;;;;;;;5035665;28;20467;-79
2021/06/05 07:45:46;;;;;;;47.23;43.17;;;;;;;;;;5035553;28;20406;-89
2021/06/05 07:48:14;;;;;;;47.23;43.03;;;;;;;;;;5035318;28;20444;-78
2021/06/05 07:50:41;;;;;;;47.17;43.30;;;;;;;;;;5035512;28;20443;-78
2021/06/05 07:53:08;;;;;;;46.97;42.83;;;;;;;;;;5036107;28;20450;-78
2021/06/05 07:55:35;;;;;;;48.37;44.37;;;;;;;;;;5035197;28;20445;-79
2021/06/05 07:58:02;;;;;;;47.20;43.30;;;;;;;;;;5035239;28;20515;-79
2021/06/05 08:00:32;;;;;;;48.20;43.87;;;;;;;;;;5033989;28;20908;-79
2021/06/05 08:02:59;;;;;;;46.53;42.43;;;;;;;;;;5035055;28;20464;-78
2021/06/05 08:05:26;;;;;;;46.43;42.43;;;;;;;;;;5034977;28;20919;-81
2021/06/05 08:07:53;;;;;;;48.57;44.40;;;;;;;;;;5035321;28;20452;-80
2021/06/05 08:10:21;;;;;;;48.67;44.57;;;;;;;;;;5035574;28;20469;-83
2021/06/05 08:12:48;;;;;;;44.97;41.27;;;;;;;;;;5035491;28;20413;-87
2021/06/05 08:15:16;;;;;;;49.70;45.30;;;;;;;;;;5035056;28;20409;-82
2021/06/05 08:17:44;;;;;;;49.57;45.27;;;;;;;;;;5033987;28;20461;-83
2021/06/05 08:20:13;;;;;;;50.90;46.40;;;;;;;;;;5035027;28;20421;-80
2021/06/05 08:22:40;;;;;;;50.07;45.67;;;;;;;;;;5034562;28;20932;-80
2021/06/05 08:25:08;;;;;;;48.17;44.23;;;;;;;;;;5034957;28;20998;-83
2021/06/05 08:27:37;;;;;;;52.40;47.73;;;;;;;;;;5034687;28;20442;-81
2021/06/05 08:30:04;;;;;;;54.43;49.73;;;;;;;;;;5035065;28;20526;-83
2021/06/05 08:32:31;;;;;;;52.40;47.70;;;;;;;;;;5034526;28;20522;-82
2021/06/05 08:34:59;;;;;;;53.60;48.47;;;;;;;;;;5034455;28;20443;-80
2021/06/05 08:37:26;;;;;;;54.13;49.23;;;;;;;;;;5034510;28;20478;-87
2021/06/05 08:39:53;;;;;;;50.93;46.50;;;;;;;;;;5034688;28;20509;-80
2021/06/05 08:42:22;;;;;;;55.90;50.80;;;;;;;;;;5034780;28;20417;-79
2021/06/05 08:44:50;;;;;;;56.53;51.50;;;;;;;;;;5034047;28;20977;-80
2021/06/05 08:47:20;;;;;;;58.80;53.10;;;;;;;;;;5034338;28;20451;-80
2021/06/05 08:49:47;;;;;;;55.47;50.47;;;;;;;;;;5034516;28;20526;-82
2021/06/05 08:52:30;;;;;;;59.10;53.30;;;;;;;;;;5033257;28;20428;-82
2021/06/05 08:55:01;;;;;;;56.13;50.93;;;;;;;;;;5034141;28;20929;-81
2021/06/05 08:57:32;;;;;;;60.60;54.50;;;;;;;;;;5034238;28;20982;-80
2021/06/05 09:00:00;;;;;;;57.70;52.03;;;;;;;;;;5034275;28;20490;-80
2021/06/05 09:02:27;;;;;;;54.23;49.17;;;;;;;;;;5034028;28;20416;-81
2021/06/05 09:04:57;;;;;;;59.33;53.67;;;;;;;;;;5035457;28;20443;-94
2021/06/05 09:07:26;;;;;;;56.20;51.03;;;;;;;;;;5035680;28;20819;-91
2021/06/05 09:09:54;;;;;;;59.97;54.57;;;;;;;;;;5034205;28;20543;-79
2021/06/05 09:12:21;;;;;;;56.97;51.70;;;;;;;;;;5034248;28;20399;-81
2021/06/05 09:14:52;;;;;;;58.60;53.20;;;;;;;;;;5034281;28;20485;-79
2021/06/05 09:17:20;;;;;;;56.43;51.20;;;;;;;;;;5034002;28;20590;-83
2021/06/05 09:20:04;;;;;;;56.90;51.53;;;;;;;;;;5032511;28;20459;-77
2021/06/05 09:22:34;;;;;;;57.33;52.03;;;;;;;;;;5033423;28;20432;-78
2021/06/05 09:25:17;;;;;;;57.00;51.93;;;;;;;;;;5033902;28;20432;-78
2021/06/05 09:27:44;;;;;;;58.70;53.40;;;;;;;;;;5033683;28;20436;-78
2021/06/05 09:30:23;;;;;;;60.20;54.80;;;;;;;;;;5033495;28;20451;-77
2021/06/05 09:32:56;;;;;;;60.70;55.30;;;;;;;;;;5033147;28;20475;-79
2021/06/05 09:35:26;;;;;;;59.30;53.37;;;;;;;;;;5032680;28;20447;-79
2021/06/05 09:37:54;;;;;;;60.00;54.40;;;;;;;;;;5033238;28;21033;-79
2021/06/05 09:40:23;;;;;;;61.73;56.03;;;;;;;;;;5033441;28;20426;-77
2021/06/05 09:42:51;;;;;;;60.37;54.87;;;;;;;;;;5034391;28;20442;-77
2021/06/05 09:45:26;;;;;;;59.50;53.80;;;;;;;;;;5032252;28;20467;-77
2021/06/05 09:48:13;;;;;;;58.73;53.23;;;;;;;;;;5033075;28;20463;-77
2021/06/05 09:50:42;;;;;;;58.20;52.67;;;;;;;;;;5033296;28;20426;-77
2021/06/05 09:53:12;;;;;;;59.53;54.23;;;;;;;;;;5033408;28;20455;-77
2021/06/05 09:55:39;;;;;;;57.90;52.70;;;;;;;;;;5033772;28;20481;-79
2021/06/05 09:58:11;;;;;;;57.57;52.57;;;;;;;;;;5033499;28;20558;-82
2021/06/05 10:00:39;;;;;;;56.57;51.23;;;;;;;;;;5033600;28;20500;-84
2021/06/05 10:03:21;;;;;;;58.00;52.80;;;;;;;;;;5033516;28;20428;-79
2021/06/05 10:05:49;;;;;;;55.63;50.67;;;;;;;;;;5033486;28;20418;-78
2021/06/05 10:08:23;;;;;;;57.03;52.03;;;;;;;;;;5032985;28;20892;-78
2021/06/05 10:10:53;;;;;;;56.20;51.33;;;;;;;;;;5032782;28;20490;-85
2021/06/05 10:13:22;;;;;;;57.80;52.60;;;;;;;;;;5033766;28;20418;-78
2021/06/05 10:15:53;;;;;;;66.87;60.83;;;;;;;;;;5032991;28;20410;-78
2021/06/05 10:18:22;;;;;;;69.90;63.13;;;;;;;;;;5033212;28;20556;-78
2021/06/05 10:20:51;;;;;;;75.63;68.60;;;;;;;;;;5033273;28;20502;-78
2021/06/05 10:23:19;;;;;;;70.80;63.70;;;;;;;;;;5033225;28;20454;-79
2021/06/05 10:25:50;;;;;;;70.83;64.00;;;;;;;;;;5032829;28;20485;-78
2021/06/05 10:28:18;;;;;;;69.20;62.10;;;;;;;;;;5033661;28;20451;-84
2021/06/05 10:30:48;;;;;;;67.00;60.77;;;;;;;;;;5032318;28;20435;-81
2021/06/05 10:33:18;;;;;;;69.57;62.73;;;;;;;;;;5033335;28;20410;-80
2021/06/05 10:35:45;;;;;;;65.10;58.63;;;;;;;;;;5032833;28;20422;-80
2021/06/05 10:38:14;;;;;;;63.10;57.37;;;;;;;;;;5033214;28;20499;-77
2021/06/05 10:40:41;;;;;;;65.47;58.97;;;;;;;;;;5033193;28;20447;-77
2021/06/05 10:43:15;;;;;;;66.90;60.70;;;;;;;;;;5031886;28;20481;-76
2021/06/05 10:45:42;;;;;;;64.80;59.07;;;;;;;;;;5032648;28;20454;-77
2021/06/05 10:48:15;;;;;;;64.30;58.43;;;;;;;;;;5035659;28;20838;-76
2021/06/05 10:50:44;;;;;;;66.80;60.50;;;;;;;;;;5036576;28;20848;-76
2021/06/05 10:53:12;;;;;;;68.23;61.67;;;;;;;;;;5036556;28;20418;-77
2021/06/05 10:55:43;;;;;;;62.73;57.03;;;;;;;;;;5036687;28;20442;-76
2021/06/05 10:58:34;;;;;;;67.63;61.40;;;;;;;;;;5036011;28;20488;-77
2021/06/05 11:01:05;;;;;;;61.93;56.50;;;;;;;;;;5021238;28;20437;-77
2021/06/05 11:03:59;;;;;;;76.23;69.30;;;;;;;;;;5036162;28;20414;-77
2021/06/05 11:06:28;;;;;;;78.73;71.37;;;;;;;;;;5036269;28;20446;-77
2021/06/05 11:08:56;;;;;;;76.87;69.70;;;;;;;;;;5034794;28;20825;-77
2021/06/05 11:11:38;;;;;;;77.40;70.33;;;;;;;;;;5036230;28;20436;-77
2021/06/05 11:14:07;;;;;;;78.27;71.00;;;;;;;;;;5036156;28;20448;-77
2021/06/05 11:16:52;;;;;;;76.03;68.97;;;;;;;;;;5035749;28;20528;-79
2021/06/05 11:19:32;;;;;;;80.60;73.20;;;;;;;;;;5036070;28;20489;-79
2021/06/05 11:22:00;;;;;;;79.23;72.10;;;;;;;;;;5036081;28;20440;-78
2021/06/05 11:24:27;;;;;;;76.90;69.33;;;;;;;;;;5034601;28;20407;-78
2021/06/05 11:26:56;;;;;;;75.70;68.80;;;;;;;;;;5036470;28;20466;-80
2021/06/05 11:29:45;;;;;;;75.90;68.70;;;;;;;;;;5036044;28;20428;-80
2021/06/05 11:32:27;;;;;;;75.83;68.50;;;;;;;;;;5032616;28;21072;-78
2021/06/05 11:34:56;;;;;;;73.37;66.67;;;;;;;;;;5035596;28;20498;-77
2021/06/05 11:37:41;;;;;;;72.60;65.90;;;;;;;;;;5035580;28;20479;-78
2021/06/05 11:40:09;;;;;;;72.67;65.80;;;;;;;;;;5028932;28;20455;-78
2021/06/05 11:42:49;;;;;;;74.60;67.53;;;;;;;;;;5035203;28;20441;-78
2021/06/05 11:45:33;;;;;;;72.70;65.90;;;;;;;;;;5034049;28;20504;-80
2021/06/05 11:48:00;;;;;;;65.27;58.73;;;;;;;;;;5035281;28;20954;-80
2021/06/05 11:50:33;;;;;;;68.37;61.87;;;;;;;;;;5035045;28;20443;-80
2021/06/05 11:53:15;;;;;;;66.43;60.27;;;;;;;;;;5035225;28;20834;-80
2021/06/05 11:55:44;;;;;;;67.00;60.83;;;;;;;;;;5034926;28;20456;-78
2021/06/05 11:58:30;;;;;;;68.37;62.10;;;;;;;;;;5034749;28;20483;-78
2021/06/05 12:01:02;;;;;;;66.77;60.33;;;;;;;;;;5035306;28;20444;-79
2021/06/05 12:03:33;;;;;;;65.83;59.97;;;;;;;;;;5034835;28;20972;-78
2021/06/05 12:06:11;;;;;;;68.07;61.93;;;;;;;;;;5034934;28;20424;-78
2021/06/05 12:08:38;;;;;;;70.63;64.33;;;;;;;;;;5035061;28;20439;-77
2021/06/05 12:11:17;;;;;;;65.97;59.67;;;;;;;;;;5033459;28;20480;-77
2021/06/05 12:13:44;;;;;;;70.27;63.83;;;;;;;;;;5034787;28;20817;-78
2021/06/05 12:16:15;;;;;;;66.50;60.50;;;;;;;;;;5034687;28;20490;-77
2021/06/05 12:18:44;;;;;;;63.93;58.20;;;;;;;;;;5034770;28;20467;-78
2021/06/05 12:21:24;;;;;;;64.40;58.30;;;;;;;;;;5034354;28;20456;-78
2021/06/05 12:23:52;;;;;;;61.87;56.37;;;;;;;;;;5033273;28;20459;-78
2021/06/05 12:26:20;;;;;;;63.57;58.00;;;;;;;;;;5034732;28;20475;-78
2021/06/05 12:28:48;;;;;;;65.30;59.40;;;;;;;;;;5034646;28;20530;-78
2021/06/05 12:31:16;;;;;;;61.80;56.30;;;;;;;;;;5034097;28;20419;-79
2021/06/05 12:33:44;;;;;;;61.70;56.20;;;;;;;;;;5034255;28;20451;-78
2021/06/05 12:36:22;;;;;;;60.93;55.47;;;;;;;;;;5034196;28;20784;-79
2021/06/05 12:38:51;;;;;;;63.77;57.70;;;;;;;;;;5034150;28;20938;-79
2021/06/05 12:41:22;;;;;;;61.00;55.50;;;;;;;;;;5034370;28;20426;-80
2021/06/05 12:43:49;;;;;;;65.27;59.17;;;;;;;;;;5034428;28;20550;-78
2021/06/05 12:46:19;;;;;;;61.70;56.20;;;;;;;;;;5034185;28;20415;-79
2021/06/05 12:48:46;;;;;;;66.60;60.37;;;;;;;;;;5034358;28;20435;-79
2021/06/05 12:51:18;;;;;;;65.63;59.60;;;;;;;;;;5034488;28;20440;-78
2021/06/05 12:53:45;;;;;;;63.07;57.03;;;;;;;;;;5034088;28;20531;-79
2021/06/05 12:56:26;;;;;;;60.63;55.13;;;;;;;;;;5034282;28;20470;-79
2021/06/05 12:58:56;;;;;;;61.47;55.57;;;;;;;;;;5034322;28;20948;-78
2021/06/05 13:01:31;;;;;;;57.93;52.63;;;;;;;;;;5033863;28;20498;-81
2021/06/05 13:03:58;;;;;;;55.93;50.97;;;;;;;;;;5034269;28;20466;-86
2021/06/05 13:06:28;;;;;;;55.23;50.13;;;;;;;;;;5034338;28;20448;-85
2021/06/05 13:08:56;;;;;;;51.33;46.77;;;;;;;;;;5034054;28;20436;-86
2021/06/05 13:11:47;;;;;;;53.57;48.60;;;;;;;;;;5034349;28;20440;-86
2021/06/05 13:14:21;;;;;;;52.37;47.67;;;;;;;;;;5034687;28;20436;-85
2021/06/05 13:16:49;;;;;;;52.93;48.43;;;;;;;;;;5034288;28;20485;-85
2021/06/05 13:19:21;;;;;;;51.43;47.03;;;;;;;;;;5034587;28;20455;-85
2021/06/05 13:22:03;;;;;;;50.63;46.27;;;;;;;;;;5034310;28;20441;-86
2021/06/05 13:24:29;;;;;;;53.37;48.70;;;;;;;;;;5034285;28;20444;-86
2021/06/05 13:27:11;;;;;;;50.60;46.40;;;;;;;;;;5034330;28;20450;-86
2021/06/05 13:29:40;;;;;;;54.60;49.80;;;;;;;;;;5033058;28;20826;-87
2021/06/05 13:32:09;;;;;;;58.00;53.10;;;;;;;;;;5034359;28;20471;-87
2021/06/05 13:34:38;;;;;;;54.97;50.37;;;;;;;;;;5033967;28;20453;-87
2021/06/05 13:37:22;;;;;;;54.87;50.30;;;;;;;;;;5034431;28;20461;-87
2021/06/05 13:39:49;;;;;;;56.10;51.30;;;;;;;;;;5034072;28;20519;-86
2021/06/05 13:42:17;;;;;;;55.67;50.80;;;;;;;;;;5033912;28;20431;-87
2021/06/05 13:44:45;;;;;;;57.13;52.20;;;;;;;;;;5033289;28;20471;-87
2021/06/05 13:47:13;;;;;;;50.20;45.80;;;;;;;;;;5033839;28;20444;-88
2021/06/05 13:49:40;;;;;;;46.53;42.93;;;;;;;;;;5034151;28;20441;-87
2021/06/05 13:52:10;;;;;;;46.23;42.70;;;;;;;;;;5033956;28;20434;-86
2021/06/05 13:54:37;;;;;;;47.77;43.83;;;;;;;;;;5032623;28;20473;-89
2021/06/05 13:57:05;;;;;;;47.87;44.17;;;;;;;;;;5035011;28;20480;-87
2021/06/05 13:59:32;;;;;;;45.47;41.87;;;;;;;;;;5033930;28;20457;-86
2021/06/05 14:02:00;;;;;;;45.60;42.00;;;;;;;;;;5033674;28;20433;-86
2021/06/05 14:04:27;;;;;;;46.23;42.53;;;;;;;;;;5033382;28;20440;-83
2021/06/05 14:06:54;;;;;;;43.43;40.13;;;;;;;;;;5034182;28;20444;-83
2021/06/05 14:09:21;;;;;;;48.63;44.80;;;;;;;;;;5033658;28;20477;-87
2021/06/05 14:11:48;;;;;;;46.00;42.50;;;;;;;;;;5035358;28;20426;-89
2021/06/05 14:14:16;;;;;;;45.93;42.30;;;;;;;;;;5034265;28;20891;-89
2021/06/05 14:16:43;;;;;;;46.00;42.30;;;;;;;;;;5033871;28;20417;-88
2021/06/05 14:19:11;;;;;;;50.50;46.40;;;;;;;;;;5033767;28;20410;-82
2021/06/05 14:21:38;;;;;;;48.50;44.70;;;;;;;;;;5019286;28;20455;-86
2021/06/05 14:24:06;;;;;;;49.80;45.50;;;;;;;;;;5026697;28;20786;-81
2021/06/05 14:26:33;;;;;;;50.57;46.27;;;;;;;;;;5020990;28;20423;-88
2021/06/05 14:29:00;;;;;;;48.13;44.10;;;;;;;;;;5017634;28;20415;-87